createdAt,value
2023-01-21T00:02:14.552Z,26.33
2023-01-21T00:04:44.228Z,28.77
2023-01-21T00:07:13.866Z,27.67
2023-01-21T00:09:43.525Z,25.48
2023-01-21T00:12:13.172Z,25.48
2023-01-21T00:14:46.079Z,24.80
2023-01-21T00:17:15.717Z,25.35
2023-01-21T00:19:45.335Z,25.10
2023-01-21T00:22:15.054Z,24.20
2023-01-21T00:24:44.686Z,25.17
2023-01-21T00:27:14.311Z,25.30
2023-01-21T00:29:46.583Z,24.40
2023-01-21T00:32:16.291Z,25.25
2023-01-21T00:34:46.136Z,27.48
2023-01-21T00:37:15.780Z,29.40
2023-01-21T00:39:45.435Z,29.40
2023-01-21T00:42:15.218Z,30.13
2023-01-21T00:44:47.447Z,27.67
2023-01-21T00:47:17.163Z,28.88
2023-01-21T00:49:46.792Z,28.77
2023-01-21T00:52:16.449Z,30.88
2023-01-21T00:54:46.072Z,30.77
2023-01-21T00:57:16.322Z,30.33
2023-01-21T00:59:48.784Z,32.45
2023-01-21T01:02:18.466Z,34.05
2023-01-21T01:04:49.054Z,32.38
2023-01-21T01:07:18.678Z,31.25
2023-01-21T01:09:48.292Z,30.48
2023-01-21T01:12:17.955Z,31.08
2023-01-21T01:14:50.263Z,34.03
2023-01-21T01:17:19.927Z,32.83
2023-01-21T01:19:49.587Z,35.78
2023-01-21T01:22:19.200Z,34.83
2023-01-21T01:24:49.025Z,33.58
2023-01-21T01:27:18.809Z,31.55
2023-01-21T01:29:51.370Z,32.30
2023-01-21T01:32:21.000Z,30.27
2023-01-21T01:34:50.655Z,30.42
2023-01-21T01:37:20.316Z,32.20
2023-01-21T01:39:49.920Z,29.98
2023-01-21T01:42:19.614Z,28.77
2023-01-21T01:45:14.699Z,27.95
2023-01-21T01:47:48.040Z,27.48
2023-01-21T01:50:22.382Z,26.75
2023-01-21T01:52:52.052Z,27.23
2023-01-21T01:55:21.852Z,26.30
2023-01-21T01:57:55.434Z,27.15
2023-01-21T02:00:29.107Z,28.10
2023-01-21T02:03:12.035Z,28.90
2023-01-21T02:05:45.021Z,28.88
2023-01-21T02:08:14.805Z,26.90
2023-01-21T02:10:44.443Z,28.00
2023-01-21T02:13:15.043Z,28.85
2023-01-21T02:16:02.080Z,27.90
2023-01-21T02:18:41.073Z,26.40
2023-01-21T02:21:55.835Z,27.45
2023-01-21T02:25:00.972Z,28.23
2023-01-21T02:27:54.537Z,27.23
2023-01-21T02:30:44.575Z,27.90
2023-01-21T02:33:39.211Z,26.27
2023-01-21T02:36:33.111Z,25.73
2023-01-21T02:39:10.501Z,24.08
2023-01-21T02:41:52.616Z,24.20
2023-01-21T02:44:30.401Z,23.75
2023-01-21T02:47:08.689Z,23.90
2023-01-21T02:49:45.026Z,22.70
2023-01-21T02:52:21.216Z,23.33
2023-01-21T02:54:56.919Z,24.73
2023-01-21T02:57:44.728Z,25.00
2023-01-21T03:00:20.621Z,25.90
2023-01-21T03:03:21.713Z,23.75
2023-01-21T03:06:26.867Z,23.95
2023-01-21T03:09:04.862Z,23.80
2023-01-21T03:11:35.068Z,24.67
2023-01-21T03:14:26.141Z,24.40
2023-01-21T03:17:00.659Z,27.77
2023-01-21T03:19:38.408Z,27.55
2023-01-21T03:22:13.991Z,28.90
2023-01-21T03:24:50.700Z,30.42
2023-01-21T03:27:25.338Z,30.02
2023-01-21T03:30:00.416Z,30.85
2023-01-21T03:32:33.967Z,29.58
2023-01-21T03:35:06.085Z,30.35
2023-01-21T03:37:43.127Z,30.73
2023-01-21T03:40:24.931Z,29.02
2023-01-21T03:42:56.481Z,29.90
2023-01-21T03:45:40.036Z,29.95
2023-01-21T03:48:21.818Z,29.85
2023-01-21T03:50:58.096Z,28.13
2023-01-21T03:53:28.457Z,31.53
2023-01-21T03:56:00.756Z,28.83
2023-01-21T03:58:31.281Z,29.80
2023-01-21T04:01:00.941Z,30.00
2023-01-21T04:03:30.741Z,29.80
2023-01-21T04:06:00.337Z,29.67
2023-01-21T04:08:29.999Z,31.65
2023-01-21T04:11:02.239Z,31.42
2023-01-21T04:13:31.929Z,29.60
2023-01-21T04:16:01.568Z,31.63
2023-01-21T04:18:31.244Z,30.10
2023-01-21T04:21:01.344Z,27.33
2023-01-21T04:23:31.072Z,28.05
2023-01-21T04:26:03.354Z,30.33
2023-01-21T04:28:33.007Z,29.57
2023-01-21T04:31:02.709Z,30.30
2023-01-21T04:33:32.347Z,28.67
2023-01-21T04:36:03.020Z,28.77
2023-01-21T04:38:32.715Z,29.58
2023-01-21T04:41:04.921Z,27.30
2023-01-21T04:43:34.578Z,27.85
2023-01-21T04:46:04.331Z,27.13
2023-01-21T04:48:34.127Z,29.97
2023-01-21T04:51:03.812Z,28.53
2023-01-21T04:53:33.468Z,28.90
2023-01-21T04:56:05.709Z,30.17
2023-01-21T04:58:35.387Z,29.17
2023-01-21T05:01:05.089Z,31.70
2023-01-21T05:03:34.914Z,32.20
2023-01-21T05:06:04.651Z,29.93
2023-01-21T05:08:34.325Z,34.40
2023-01-21T05:11:06.594Z,33.55
2023-01-21T05:13:36.331Z,33.73
2023-01-21T05:16:09.930Z,32.07
2023-01-21T05:18:40.843Z,31.67
2023-01-21T05:21:11.139Z,32.57
2023-01-21T05:23:40.839Z,33.20
2023-01-21T05:26:13.079Z,30.53
2023-01-21T05:28:42.779Z,31.30
2023-01-21T05:31:12.491Z,32.63
2023-01-21T05:33:44.018Z,32.67
2023-01-21T05:36:13.789Z,32.27
2023-01-21T05:38:43.445Z,32.10
2023-01-21T05:41:15.687Z,33.30
2023-01-21T05:43:45.369Z,35.07
2023-01-21T05:46:15.244Z,33.33
2023-01-21T05:48:45.007Z,32.47
2023-01-21T05:51:14.839Z,32.80
2023-01-21T05:53:44.563Z,34.47
2023-01-21T05:56:17.057Z,33.37
2023-01-21T05:58:46.805Z,33.40
2023-01-21T06:01:16.610Z,33.73
2023-01-21T06:03:46.317Z,35.63
2023-01-21T06:06:16.008Z,33.27
2023-01-21T06:08:45.681Z,33.17
2023-01-21T06:11:17.953Z,32.20
2023-01-21T06:13:47.637Z,33.00
2023-01-21T06:16:17.277Z,31.77
2023-01-21T06:18:46.969Z,34.10
2023-01-21T06:21:16.656Z,32.83
2023-01-21T06:23:46.305Z,34.17
2023-01-21T06:26:18.520Z,35.60
2023-01-21T06:28:48.210Z,36.83
2023-01-21T06:31:17.982Z,36.90
2023-01-21T06:33:47.693Z,32.60
2023-01-21T06:36:17.367Z,32.60
2023-01-21T06:38:47.053Z,32.77
2023-01-21T06:41:19.302Z,34.15
2023-01-21T06:43:48.964Z,34.07
2023-01-21T06:46:18.698Z,32.90
2023-01-21T06:48:48.480Z,32.80
2023-01-21T06:51:18.169Z,32.43
2023-01-21T06:53:47.893Z,30.93
2023-01-21T06:56:20.368Z,31.53
2023-01-21T06:58:50.037Z,31.03
2023-01-21T07:01:19.680Z,34.07
2023-01-21T07:03:49.325Z,32.63
2023-01-21T07:06:19.002Z,33.40
2023-01-21T07:08:48.743Z,33.27
2023-01-21T07:11:21.020Z,32.77
2023-01-21T07:13:50.682Z,35.27
2023-01-21T07:16:20.356Z,32.40
2023-01-21T07:18:50.046Z,33.33
2023-01-21T07:21:19.958Z,32.90
2023-01-21T07:23:49.598Z,31.93
2023-01-21T07:26:21.858Z,34.20
2023-01-21T07:28:51.645Z,32.73
2023-01-21T07:31:21.444Z,34.60
2023-01-21T07:33:51.263Z,34.70
2023-01-21T07:36:20.999Z,34.00
2023-01-21T07:38:50.656Z,34.00
2023-01-21T07:41:22.974Z,34.10
2023-01-21T07:43:53.379Z,33.33
2023-01-21T07:46:24.187Z,33.13
2023-01-21T07:48:54.820Z,33.25
2023-01-21T07:51:25.092Z,33.57
2023-01-21T07:53:54.757Z,35.53
2023-01-21T07:56:27.601Z,35.97
2023-01-21T07:58:57.404Z,35.60
2023-01-21T08:01:31.023Z,32.27
2023-01-21T08:04:01.068Z,34.27
2023-01-21T08:06:30.724Z,35.80
2023-01-21T08:09:00.356Z,34.80
2023-01-21T08:11:32.593Z,32.93
2023-01-21T08:14:02.269Z,34.90
2023-01-21T08:16:31.957Z,34.10
2023-01-21T08:19:01.625Z,33.67
2023-01-21T08:21:31.245Z,32.93
2023-01-21T08:24:00.929Z,34.93
2023-01-21T08:26:33.165Z,35.37
2023-01-21T08:29:02.839Z,36.50
2023-01-21T08:31:32.614Z,34.97
2023-01-21T08:34:02.317Z,35.67
2023-01-21T08:36:32.001Z,35.47
2023-01-21T08:39:02.090Z,37.07
2023-01-21T08:41:34.635Z,41.73
2023-01-21T08:44:04.320Z,37.10
2023-01-21T08:46:34.184Z,38.10
2023-01-21T08:49:03.933Z,37.97
2023-01-21T08:51:33.591Z,36.83
2023-01-21T08:54:04.619Z,38.07
2023-01-21T08:56:37.382Z,38.93
2023-01-21T08:59:07.092Z,40.43
2023-01-21T09:01:40.870Z,40.77
2023-01-21T09:04:11.494Z,38.50
2023-01-21T09:06:41.164Z,37.97
2023-01-21T09:09:13.954Z,34.67
2023-01-21T09:11:46.373Z,35.60
2023-01-21T09:14:16.059Z,37.60
2023-01-21T09:16:45.764Z,37.67
2023-01-21T09:19:15.442Z,37.70
2023-01-21T09:21:45.075Z,39.20
2023-01-21T09:24:14.722Z,40.00
2023-01-21T09:26:47.642Z,40.00
2023-01-21T09:29:17.339Z,41.80
2023-01-21T09:31:47.028Z,39.85
2023-01-21T09:34:16.816Z,43.30
2023-01-21T09:36:46.434Z,42.70
2023-01-21T09:39:16.077Z,40.37
2023-01-21T09:41:52.770Z,43.80
2023-01-21T09:44:28.052Z,41.65
2023-01-21T09:47:03.343Z,43.83
2023-01-21T09:49:37.602Z,41.13
2023-01-21T09:52:25.345Z,45.00
2023-01-21T09:54:55.173Z,44.13
2023-01-21T09:57:46.357Z,41.53
2023-01-21T10:00:36.310Z,42.17
2023-01-21T10:03:17.506Z,41.60
2023-01-21T10:06:16.590Z,41.37
2023-01-21T10:09:02.378Z,44.70
2023-01-21T10:11:45.958Z,41.33
2023-01-21T10:14:39.633Z,43.50
2023-01-21T10:17:16.939Z,40.43
2023-01-21T10:19:54.375Z,39.60
2023-01-21T10:22:28.512Z,39.17
2023-01-21T10:25:03.011Z,41.63
2023-01-21T10:27:38.127Z,39.80
2023-01-21T10:30:24.728Z,39.00
2023-01-21T10:32:57.158Z,38.90
2023-01-21T10:35:54.983Z,41.00
2023-01-21T10:38:32.560Z,38.33
2023-01-21T10:41:11.358Z,38.80
2023-01-21T10:43:50.287Z,40.73
2023-01-21T10:46:29.168Z,40.00
2023-01-21T10:49:05.927Z,39.93
2023-01-21T10:51:45.469Z,41.67
2023-01-21T10:54:24.977Z,40.87
2023-01-21T10:57:03.271Z,40.87
2023-01-21T10:59:36.798Z,39.90
2023-01-21T11:02:23.200Z,40.77
2023-01-21T11:04:53.976Z,37.13
2023-01-21T11:07:25.069Z,39.87
2023-01-21T11:09:55.513Z,36.70
2023-01-21T11:12:25.167Z,38.97
2023-01-21T11:14:58.433Z,36.70
2023-01-21T11:17:36.624Z,35.77
2023-01-21T11:20:10.116Z,35.80
2023-01-21T11:22:46.367Z,36.60
2023-01-21T11:25:28.334Z,34.50
2023-01-21T11:27:58.029Z,32.63
2023-01-21T11:30:49.571Z,33.77
2023-01-21T11:33:31.474Z,32.70
2023-01-21T11:36:12.990Z,33.33
2023-01-21T11:38:43.194Z,32.80
2023-01-21T11:41:21.764Z,32.67
2023-01-21T11:43:54.645Z,32.07
2023-01-21T11:46:31.417Z,32.47
2023-01-21T11:49:22.571Z,30.57
2023-01-21T11:51:52.652Z,27.87
2023-01-21T11:54:23.756Z,28.97
2023-01-21T11:56:59.517Z,30.30
2023-01-21T11:59:34.314Z,29.30
2023-01-21T12:02:10.839Z,26.17
2023-01-21T12:04:48.470Z,24.70
2023-01-21T12:07:21.694Z,24.97
2023-01-21T12:09:57.059Z,25.00
2023-01-21T12:12:37.666Z,26.47
2023-01-21T12:15:18.246Z,26.90
2023-01-21T12:17:59.958Z,28.53
2023-01-21T12:20:42.028Z,29.00
2023-01-21T12:23:31.510Z,29.90
2023-01-21T12:26:15.971Z,28.20
2023-01-21T12:31:42.828Z,27.00
2023-01-21T12:34:19.380Z,26.77
2023-01-21T12:36:56.701Z,28.70
2023-01-21T12:39:30.122Z,26.10
2023-01-21T12:42:08.888Z,27.77
2023-01-21T12:44:45.781Z,27.60
2023-01-21T12:47:24.563Z,27.97
2023-01-21T12:50:18.029Z,27.53
2023-01-21T12:52:59.962Z,27.07
2023-01-21T12:55:39.715Z,26.13
2023-01-21T12:58:14.276Z,27.80
2023-01-21T13:00:47.851Z,27.80
2023-01-21T13:03:26.185Z,25.77
2023-01-21T13:06:00.672Z,26.57
2023-01-21T13:08:46.221Z,27.30
2023-01-21T13:11:22.203Z,26.83
2023-01-21T13:13:59.132Z,25.13
2023-01-21T13:16:29.244Z,23.77
2023-01-21T13:18:59.055Z,25.50
2023-01-21T13:21:38.890Z,24.33
2023-01-21T13:24:18.501Z,23.90
2023-01-21T13:26:55.828Z,23.40
2023-01-21T13:29:34.767Z,22.83
2023-01-21T13:32:23.505Z,23.10
2023-01-21T13:35:06.721Z,23.27
2023-01-21T13:37:42.285Z,22.97
2023-01-21T13:40:28.092Z,23.80
2023-01-21T13:43:09.705Z,23.47
2023-01-21T13:45:51.405Z,22.27
2023-01-21T13:48:49.566Z,21.47
2023-01-21T13:51:35.598Z,22.10
2023-01-21T13:54:30.096Z,21.30
2023-01-21T13:57:16.016Z,22.40
2023-01-21T13:59:52.255Z,22.40
2023-01-21T14:02:26.773Z,23.20
2023-01-21T14:05:02.187Z,24.03
2023-01-21T14:07:36.664Z,22.00
2023-01-21T14:10:16.152Z,24.00
2023-01-21T14:13:07.581Z,22.97
2023-01-21T14:15:51.351Z,23.70
2023-01-21T14:18:41.151Z,25.97
2023-01-21T14:21:22.329Z,28.77
2023-01-21T14:24:08.339Z,28.20
2023-01-21T14:26:49.639Z,28.80
2023-01-21T14:29:29.352Z,27.67
2023-01-21T14:32:06.563Z,26.70
2023-01-21T14:34:47.672Z,27.83
2023-01-21T14:37:20.855Z,28.07
2023-01-21T14:40:01.015Z,29.17
2023-01-21T14:42:44.977Z,28.33
2023-01-21T14:45:20.482Z,29.00
2023-01-21T14:47:53.842Z,28.73
2023-01-21T14:50:49.489Z,29.90
2023-01-21T14:53:26.155Z,29.17
2023-01-21T14:56:13.106Z,27.00
2023-01-21T14:58:49.161Z,27.80
2023-01-21T15:01:34.772Z,26.40
2023-01-21T15:04:07.856Z,27.53
2023-01-21T15:06:42.583Z,38.37
2023-01-21T15:09:24.064Z,50.00
2023-01-21T15:11:58.632Z,42.30
2023-01-21T15:14:31.228Z,29.30
2023-01-21T15:17:03.971Z,27.37
2023-01-21T15:19:36.039Z,26.30
2023-01-21T15:22:24.701Z,26.60
2023-01-21T15:25:27.014Z,26.40
2023-01-21T15:28:40.102Z,25.85
2023-01-21T15:31:12.183Z,25.03
2023-01-21T15:33:49.727Z,23.23
2023-01-21T15:36:25.875Z,25.40
2023-01-21T15:39:02.029Z,24.40
2023-01-21T15:41:44.943Z,25.63
2023-01-21T15:44:30.050Z,27.47
2023-01-21T15:47:10.756Z,26.70
2023-01-21T15:49:54.763Z,25.93
2023-01-21T15:52:36.057Z,25.93
2023-01-21T15:55:20.238Z,25.93
2023-01-21T15:57:57.852Z,25.97
2023-01-21T16:00:35.913Z,27.17
2023-01-21T16:03:22.805Z,24.73
2023-01-21T16:06:04.678Z,24.00
2023-01-21T16:08:53.538Z,24.47
2023-01-21T16:11:42.086Z,25.90
2023-01-21T16:14:25.793Z,24.67
2023-01-21T16:17:07.254Z,26.17
2023-01-21T16:19:40.857Z,23.77
2023-01-21T16:22:15.295Z,24.40
2023-01-21T16:24:49.764Z,25.00
2023-01-21T16:27:21.404Z,24.50
2023-01-21T16:29:57.070Z,25.40
2023-01-21T16:32:27.191Z,26.50
2023-01-21T16:34:57.277Z,26.67
2023-01-21T16:37:31.262Z,23.80
2023-01-21T16:40:23.405Z,25.90
2023-01-21T16:43:09.077Z,27.70
2023-01-21T16:45:39.535Z,25.40
2023-01-21T16:48:24.162Z,25.33
2023-01-21T16:50:55.058Z,24.90
2023-01-21T16:53:28.239Z,26.10
2023-01-21T16:55:59.606Z,26.60
2023-01-21T16:58:32.593Z,26.30
2023-01-21T17:01:14.107Z,25.33
2023-01-21T17:03:44.583Z,27.23
2023-01-21T17:06:18.420Z,26.07
2023-01-21T17:08:54.533Z,27.43
2023-01-21T17:11:25.373Z,27.73
2023-01-21T17:13:55.496Z,26.40
2023-01-21T17:16:29.395Z,27.33
2023-01-21T17:19:02.750Z,27.80
2023-01-21T17:21:39.781Z,26.23
2023-01-21T17:24:25.307Z,28.50
2023-01-21T17:26:58.266Z,27.13
2023-01-21T17:29:30.930Z,27.67
2023-01-21T17:32:02.227Z,27.47
2023-01-21T17:34:33.651Z,27.20
2023-01-21T17:37:05.662Z,26.50
2023-01-21T17:40:03.423Z,28.20
2023-01-21T17:42:40.546Z,27.80
2023-01-21T17:45:21.010Z,27.70
2023-01-21T17:48:08.617Z,28.63
2023-01-21T17:50:39.992Z,25.13
2023-01-21T17:53:19.941Z,26.77
2023-01-21T17:56:02.260Z,25.63
2023-01-21T17:58:47.027Z,27.40
2023-01-21T18:01:18.088Z,25.60
2023-01-21T18:03:47.813Z,26.93
2023-01-21T18:06:23.192Z,26.23
2023-01-21T18:08:54.177Z,25.90
2023-01-21T18:11:26.636Z,26.07
2023-01-21T18:13:56.248Z,23.87
2023-01-21T18:16:25.922Z,23.03
2023-01-21T18:18:56.333Z,24.70
2023-01-21T18:21:25.965Z,25.90
2023-01-21T18:23:55.966Z,24.50
2023-01-21T18:26:35.026Z,22.50
2023-01-21T18:29:04.652Z,23.47
2023-01-21T18:31:34.382Z,23.07
2023-01-21T18:34:04.302Z,24.73
2023-01-21T18:36:34.375Z,22.20
2023-01-21T18:39:03.968Z,25.43
2023-01-21T18:41:36.131Z,22.83
2023-01-21T18:44:05.836Z,22.97
2023-01-21T18:46:39.604Z,23.23
2023-01-21T18:49:15.178Z,23.77
2023-01-21T18:51:45.045Z,23.90
2023-01-21T18:54:16.614Z,23.30
2023-01-21T18:56:49.638Z,24.40
2023-01-21T18:59:22.427Z,23.70
2023-01-21T19:01:52.137Z,22.13
2023-01-21T19:04:22.292Z,22.90
2023-01-21T19:06:55.510Z,21.80
2023-01-21T19:09:27.132Z,24.57
2023-01-21T19:11:59.341Z,23.03
2023-01-21T19:14:28.985Z,21.70
2023-01-21T19:16:58.627Z,22.47
2023-01-21T19:19:28.675Z,20.70
2023-01-21T19:21:58.319Z,22.13
2023-01-21T19:24:28.215Z,22.40
2023-01-21T19:27:00.973Z,21.50
2023-01-21T19:29:31.658Z,27.50
2023-01-21T19:32:01.642Z,23.67
2023-01-21T19:34:31.430Z,21.00
2023-01-21T19:37:01.732Z,22.80
2023-01-21T19:39:32.882Z,23.80
2023-01-21T19:42:08.620Z,21.63
2023-01-21T19:44:39.351Z,22.73
2023-01-21T19:47:16.921Z,23.63
2023-01-21T19:49:46.790Z,20.37
2023-01-21T19:52:17.522Z,23.47
2023-01-21T19:54:47.308Z,23.83
2023-01-21T19:57:20.350Z,22.93
2023-01-21T19:59:53.208Z,24.27
2023-01-21T20:02:23.048Z,22.83
2023-01-21T20:04:52.878Z,21.77
2023-01-21T20:07:22.966Z,23.50
2023-01-21T20:09:53.093Z,22.03
2023-01-21T20:12:25.289Z,22.77
2023-01-21T20:14:54.933Z,22.90
2023-01-21T20:17:24.715Z,20.60
2023-01-21T20:19:54.357Z,19.83
2023-01-21T20:22:25.702Z,19.00
2023-01-21T20:24:55.684Z,19.93
2023-01-21T20:27:27.892Z,18.60
2023-01-21T20:30:14.811Z,17.73
2023-01-21T20:32:46.075Z,17.97
2023-01-21T20:35:15.944Z,15.23
2023-01-21T20:37:48.972Z,16.33
2023-01-21T20:40:21.664Z,16.67
2023-01-21T20:42:55.097Z,14.73
2023-01-21T20:45:29.625Z,15.77
2023-01-21T20:48:02.272Z,16.53
2023-01-21T20:50:35.512Z,16.13
2023-01-21T20:53:06.359Z,15.60
2023-01-21T20:55:36.400Z,15.23
2023-01-21T20:58:09.359Z,15.60
2023-01-21T21:00:39.607Z,14.80
2023-01-21T21:03:09.839Z,14.65
2023-01-21T21:05:39.843Z,15.03
2023-01-21T21:08:09.496Z,14.20
2023-01-21T21:10:39.534Z,16.70
2023-01-21T21:13:13.062Z,15.27
2023-01-21T21:15:46.315Z,14.60
2023-01-21T21:18:17.042Z,14.57
2023-01-21T21:20:47.176Z,14.20
2023-01-21T21:23:17.683Z,15.73
2023-01-21T21:25:49.445Z,13.90
2023-01-21T21:28:21.954Z,13.10
2023-01-21T21:30:51.997Z,14.53
2023-01-21T21:33:24.153Z,13.93
2023-01-21T21:35:55.733Z,14.37
2023-01-21T21:38:26.214Z,13.67
2023-01-21T21:40:57.720Z,12.93
2023-01-21T21:43:38.911Z,12.80
2023-01-21T21:46:22.527Z,13.50
2023-01-21T21:48:53.753Z,13.53
2023-01-21T21:51:24.418Z,14.77
2023-01-21T21:53:54.809Z,13.10
2023-01-21T21:56:26.036Z,12.50
2023-01-21T21:58:58.729Z,13.10
2023-01-21T22:01:31.288Z,13.17
2023-01-21T22:04:02.121Z,13.30
2023-01-21T22:06:32.589Z,12.90
2023-01-21T22:09:02.681Z,12.70
2023-01-21T22:11:32.651Z,21.20
2023-01-21T22:14:05.356Z,28.93
2023-01-21T22:16:35.400Z,13.87
2023-01-21T22:19:05.162Z,13.30
2023-01-21T22:21:36.631Z,13.03
2023-01-21T22:24:08.440Z,13.67
2023-01-21T22:26:38.494Z,13.37
2023-01-21T22:29:11.929Z,13.10
2023-01-21T22:31:41.738Z,13.10
2023-01-21T22:34:12.625Z,13.20
2023-01-21T22:36:47.003Z,14.20
2023-01-21T22:39:17.071Z,13.27
2023-01-21T22:41:46.985Z,13.73
2023-01-21T22:44:19.336Z,14.07
2023-01-21T22:46:48.998Z,14.03
2023-01-21T22:49:18.740Z,14.17
2023-01-21T22:51:48.330Z,13.80
2023-01-21T22:54:18.287Z,13.50
2023-01-21T22:56:52.843Z,14.20
2023-01-21T22:59:25.492Z,13.17
2023-01-21T23:01:55.125Z,12.37
2023-01-21T23:04:24.756Z,12.43
2023-01-21T23:06:55.159Z,13.30
2023-01-21T23:09:24.878Z,12.63
2023-01-21T23:11:54.956Z,14.57
2023-01-21T23:14:27.217Z,12.97
2023-01-21T23:16:56.866Z,11.90
2023-01-21T23:19:26.792Z,13.00
2023-01-21T23:21:56.533Z,12.10
2023-01-21T23:24:26.465Z,13.23
2023-01-21T23:26:56.145Z,12.30
2023-01-21T23:29:28.428Z,12.10
2023-01-21T23:32:00.313Z,15.55
2023-01-21T23:34:30.157Z,18.63
2023-01-21T23:36:59.777Z,13.70
2023-01-21T23:39:29.375Z,17.13
2023-01-21T23:41:58.999Z,18.50
2023-01-21T23:44:31.242Z,24.40
2023-01-21T23:47:00.862Z,14.37
2023-01-21T23:49:30.496Z,14.73
2023-01-21T23:52:00.223Z,14.80
2023-01-21T23:54:29.844Z,22.20
2023-01-21T23:56:59.507Z,17.00
2023-01-21T23:59:31.757Z,26.97
